Aeroporto :
LOGIN :

Iscrizione | Disclaimer

   EN    FR    IT 

 










Sommario :    VFR   VFR Marginale   IFR   IFR Intensivo   IFR Molto Intensivo
Visibilità : 
Base nubi : 
>= 8 km
>= 3000ft
5 / 8 km
1000 / 3000 ft
1500m / 5 km
500 / 1000 ft
800 / 1500m
200 / 500 ft
< 800m
< 200 ft
Simboli :   Temporali  Nebbia  Neve Forte  Precipitazioni Forti  Vento > 20 kt
SIGMETs :   Varie  Temporali  Ghiacco  Turbolenza  Onda orograficha  Ceneri Vulcaniche






- Altitudine del aeroporto : 425 ft
- Codice IATA : DTM


EDLW - Dortmund

ULTIMO METAR :
  • 280620Z 21008KT 9999 FEW030 01/M00 Q1015

METARs OBSOLETI :
  • 280550Z 23009KT CAVOK 02/00 Q1014
  • 280520Z 23010KT 9999 FEW012 02/00 Q1014
  • 280450Z 23011KT 9999 BKN031 02/M00 Q1014
  • 280420Z 23012KT 9999 BKN032 02/00 Q1013
  • 280350Z AUTO 23012KT 9999 SCT031/// 01/M00 Q1013
  • 280320Z AUTO 23011KT 9999 SCT049/// 01/M00 Q1013

TAF TAF EDLW
Valido dal 28 a 06 ore il 29 a 06 ore UTC


280500Z 2806/2906 24012KT 9999 SCT030
BECMG 2814/2817 18013KT
BECMG 2818/2821 18015G25KT
TEMPO 2818/2823 19020G30KT RA
PROB30
TEMPO 2900/2904 BKN009



MetMap, La meteo Aeronautica in un colpo d'occhio ! - Copyright ORBIFLY Dicembre 2007 - Disclaimer

ORBIFLY MET'MAP TEAM :

Programmazione e sviluppo : Alexandra Zaïnal
Concezione : Baudouin d'Aumeries
Aiuto per la programmazione : Marc-Olivier Méhu
Supporto tecnico e logistico : Manuel Goepfert
Aiuto per la traduzione : Arnaldo La Scala

Contatto : metmap@orbifly.com




FONTI E CREDITI :

   NOAA